DRI Storm Peak Lab. Weather observations

Data are for 5 minute period ending at time listed.
 Day   Time    Ave.   Ave.  Ave.  Vector  Max.   Total    Baro.    Solar      Aerosol      Ave.  Ultrafine   Snow  
  of    of     Air    Rel.  Wind   Wind   Wind  Precip.   Pres.  Radiation   Aerosol      Ozone   Aerosol    Depth 
Year   Day     Temp.  Hum.  Speed  Dir.   Gust                               Ave.   Max.            Ave.           
2014   (MST)    F      %     mph   deg.    mph    in.      mb.     w/m2         #/cm3      ppbv    #/cm3      in.  
-------------------------------------------------------------------------------------------------------------------
 355    5:35   15.6    94   11.4   299    19.5   999.00    682.5      0.0    -1414       0   999.0        0     0.0
 355    5:40   15.7    94    9.9   293    17.6   999.00    682.5      0.0    -1414       0   999.0        0     0.0
 355    5:45   15.7    94   11.6   297    16.7   999.00    682.6      0.0    -1414       0   999.0        0     0.0
 355    5:50   15.8    94   13.4   298    21.3   999.00    682.7      0.0    -1414       0   999.0        0     0.0
 355    5:55   15.9    94   13.3   306    22.8   999.00    682.6      0.0    -1414       0   999.0        0     0.0
 355    6:00   15.9    94   10.1   298    18.7   999.00    682.6      0.0    -1414       0   999.0        0     0.0
 355    6:05   15.9    94   13.3   298    19.9   999.00    682.5      0.0    -1413       0   999.0        0     0.0
 355    6:10   16.0    94   15.4   300    27.1   999.00    682.4      0.0    -1413       0   999.0        0     0.0
 355    6:15   16.1    94   12.8   296    23.8   999.00    682.4      0.0    -1413       0   999.0        0     0.0
 355    6:20   16.2    94   15.5   320    26.9   999.00    682.3      0.0    -1413       0   999.0        0     0.0
 355    6:25   16.3    94   16.9   313    27.3   999.00    682.2      0.0    -1413       0   999.0        0     0.0
 355    6:30   16.3    94   14.6   324    26.4   999.00    682.3      0.0    -1413       0   999.0        0     0.0
 355    6:35   16.2    94   13.0   320    23.2   999.00    682.2      0.0    -1413       0   999.0        0     0.0
 355    6:40   16.2    94   14.2   318    24.7   999.00    681.9      0.0    -1412       0   999.0        0     0.0
 355    6:45   16.2    94   14.2   315    25.1   999.00    681.8      0.0    -1412       0   999.0        0     0.0
 355    6:50   16.2    94   14.0   325    21.7   999.00    681.7      0.0    -1412       0   999.0        0     0.0
 355    6:55   16.2    94   12.9   313    28.2   999.00    681.6      0.0    -1411       0   999.0        0     0.0
 355    7:00   16.2    94   16.1   318    27.3   999.00    681.5      0.0    -1411       0   999.0        0     0.0
 355    7:05   16.2    94   11.3   312    20.0   999.00    681.6      0.0    -1411       0   999.0        0     0.0
 355    7:10   16.2    94   10.9   317    22.8   999.00    681.6      0.0    -1411       0   999.0        0     0.0
 355    7:15   16.2    94   11.9   318    18.5   999.00    681.6      0.0    -1411       0   999.0        0     0.0
 355    7:20   16.2    94   10.1   318    21.0   999.00    681.5      0.0    -1411       0   999.0        0     0.0
 355    7:25   16.1    94   11.0   322    19.1   999.00    681.4      0.0    -1411       0   999.0        0     0.0
 355    7:30   16.2    94   13.7   326    23.0   999.00    681.3      0.0    -1411       0   999.0        0     0.0
 355    7:35   16.2    94   12.0   327    20.0   999.00    681.4      0.0    -1411       0   999.0        0     0.0
 355    7:40   16.2    94   11.8   329    19.7   999.00    681.2      0.0    -1410       0   999.0        0     0.0
 355    7:45   16.2    94   13.0   330    18.7   999.00    681.0      0.0    -1410       0   999.0        0     0.0
 355    7:50   16.3    94   16.6   335    23.2   999.00    681.3      0.0    -1411       0   999.0        0     0.0
 355    7:55   16.4    94   17.2   338    21.3   999.00    681.2      0.0    -1410       0   999.0        0     0.0
 355    8:00   16.4    94   16.1   342    25.4   999.00    681.2      0.0    -1410       0   999.0        0     0.0
 355    8:05   16.5    94   15.7   337    23.2   999.00    680.9      0.0    -1410       0   999.0        0     0.0
 355    8:10   16.6    94   16.2   341    23.8   999.00    680.8      0.0    -1409       0   999.0        0     0.0
 355    8:15   16.8    95   19.4   186    27.5   999.00    680.8      0.0    -1410       0   999.0        0     0.0
 355    8:20   16.9    95   17.4   173    23.8   999.00    680.8      0.0    -1410       0   999.0        0     0.0
 355    8:25   17.0    95   17.7   181    24.7   999.00    680.9      0.0    -1410       0   999.0        0     0.0
 355    8:30   17.1    95   19.1   179    24.7   999.00    681.0      0.0    -1410       0   999.0        0     0.0
 355    8:35   17.2    95   17.8   178    26.0   999.00    681.1      0.0    -1410       0   999.0        0     0.0
 355    8:40   17.2    95   17.8   180    23.6   999.00    681.1      0.0    -1410       0   999.0        0     0.0
 355    8:45   17.3    95   18.0   181    24.1   999.00    681.1      0.0    -1410       0   999.0        0     0.0
 355    8:50   17.3    95   18.7   175    25.1   999.00    681.2      0.0    -1410       0   999.0        0     0.0
 355    8:55   17.4    95   18.4   171    24.9   999.00    681.2      0.0    -1410       0   999.0        0     0.0
 355    9:00   17.4    95   19.1   162    23.2   999.00    681.1      0.0    -1410       0   999.0        0     0.0
 355    9:05   17.4    95   15.8   169    20.6   999.00    681.2      0.0    -1410       0   999.0        0     0.0
 355    9:10   17.3    95   16.2   160    20.0   999.00    681.1      0.0    -1410       0   999.0        0     0.0
 355    9:15   17.3    95   15.0   156    20.0   999.00    681.0      0.0    -1410       0   999.0        0     0.0
 355    9:20   17.3    95   15.5   154    21.1   999.00    680.9      0.0    -1410       0   999.0        0     0.0
 355    9:25   17.4    95   14.9   154    19.7   999.00    680.7      0.0    -1410       0   999.0        0     0.0
 355    9:30   17.4    95   15.0   154    19.3   999.00    680.7      0.0    -1409       0   999.0        0     0.0
 355    9:35   17.5    95   13.7   156    17.6   999.00    680.7      0.0    -1409       0   999.0        0     0.0
 355    9:40   17.5    95   13.8   157    17.6   999.00    680.7      0.0    -1409       0   999.0        0     0.0
 355    9:45   17.5    95   12.3   159    16.5   999.00    680.8      0.0    -1409       0   999.0        0     0.0
 355    9:50   17.5    95   13.5   156    16.9   999.00    680.7      0.0    -1409       0   999.0        0     0.0
 355    9:55   17.6    95   13.0   158    15.8   999.00    680.7      0.0    -1409       0   999.0        0     0.0
 355   10:00   17.7    95   13.7   156    16.3   999.00    680.6      0.0    -1409       0   999.0        0     0.0
 355   10:05   17.7    95   11.0   175    13.7   999.00    680.7      0.0    -1409       0   999.0        0     0.0
 355   10:10   17.7    95   11.4   162    13.7   999.00    680.6      0.0    -1409       0   999.0        0     0.0
 355   10:15   17.7    95   11.6   160    15.2   999.00    680.5      0.0    -1409       0   999.0        0     0.0
 355   10:20   17.7    95    8.7   173    13.7   999.00    680.6      0.0    -1409       0   999.0        0     0.0
 355   10:25   17.7    95    8.1   175    11.3   999.00    680.4      0.0    -1409       0   999.0        0     0.0
 355   10:30   17.7    95    7.8   340    10.7   999.00    680.4      0.0    -1409       0   999.0        0     0.0
 355   10:35   17.7    95    5.7   339     8.5   999.00    680.3      0.0    -1408       0   999.0        0     0.0
 355   10:40   17.7    95   10.4   254    17.8   999.00    680.2      0.0    -1408       0   999.0        0     0.0
 355   10:45   17.7    95   10.1   269    13.0   999.00    680.2      0.0    -1408       0   999.0        0     0.0
 355   10:50   17.7    95   11.2   278    16.1   999.00    680.3      0.0    -1408       0   999.0        0     0.0
 355   10:55   17.7    95   11.5   272    17.2   999.00    680.2      0.0    -1408       0   999.0        0     0.0
 355   11:00   17.7    95   12.4   260    17.8   999.00    680.1      0.0    -1408       0   999.0        0     0.0
 355   11:05   17.6    95   15.3   259    20.2   999.00    680.0      0.0    -1408       0   999.0        0     0.0
 355   11:10   17.6    95   14.4   266    20.2   999.00    680.0      0.0    -1408       0   999.0        0     0.0
 355   11:15   17.6    95   14.9   274    21.7   999.00    680.1      0.0    -1408       0   999.0        0     0.0
 355   11:20   17.6    95   11.8   277    18.4   999.00    680.0      0.0    -1408       0   999.0        0     0.0
 355   11:25   17.6    95   12.7   265    17.8   999.00    679.7      0.0    -1408       0   999.0        0     0.0
 355   11:30   17.6    95   12.1   272    17.6   999.00    679.6      0.0    -1407       0   999.0        0     0.0
 355   11:35   17.6    95   17.2   288    24.7   999.00    679.5      0.0    -1407       0   999.0        0     0.0
 355   11:40   17.7    95   18.9   298    24.3   999.00    679.5      0.0    -1407       0   999.0        0     0.0
 355   11:45   17.8    95   15.1   303    21.0   999.00    679.5      0.0    -1408       0   999.0        0     0.0
 355   11:50   17.9    95   16.9   302    20.6   999.00    679.4      0.0    -1408       0   999.0        0     0.0
 355   11:55   17.7    95   15.9   309    20.0   999.00    679.4      0.0    -1408       0   999.0        0     0.0
 355   12:00   17.7    95   16.0   305    22.5   999.00    679.2      0.0    -1407       0   999.0        0     0.0
 355   12:05   17.7    95   16.9   305    23.2   999.00    679.1      0.0    -1407       0   999.0        0     0.0
 355   12:10   17.6    95   17.8   306    22.3   999.00    678.9      0.0    -1407       0   999.0        0     0.0
 355   12:15   17.6    95   17.2   299    23.8   999.00    678.8      0.0    -1407       0   999.0        0     0.0
 355   12:20   17.7    95   21.1   297    30.3   999.00    678.6      0.0    -1406       0   999.0        0     0.0
 355   12:25   17.9    95   20.1   295    28.4   999.00    678.5      0.0    -1406       0   999.0        0     0.0
 355   12:30   17.9    95   19.9   298    27.1   999.00    678.5      0.0    -1406       0   999.0        0     0.0
 355   12:35   18.1    95   20.1   298    30.5   999.00    678.5      0.0    -1406       0   999.0        0     0.0
 355   12:40   18.1    95   18.8   292    25.1   999.00    678.3      0.0    -1406       0   999.0        0     0.0
 355   12:45   18.2    95   20.6   286    29.5   999.00    678.2      0.0    -1406       0   999.0        0     0.0
 355   12:50   18.3    95   21.6   288    28.8   999.00    678.2      0.0    -1406       0   999.0        0     0.0
 355   12:55   18.4    95   21.8   295    28.8   999.00    678.2      0.0    -1406       0   999.0        0     0.0
 355   13:00   18.5    95   22.8   293    29.7   999.00    678.0      0.0    -1406       0   999.0        0     0.0
 355   13:05   18.5    95   22.5   298    30.8   999.00    678.0      0.0    -1406       0   999.0        0     0.0
 355   13:10   18.5    95   20.9   301    25.4   999.00    678.0      0.0    -1406       0   999.0        0     0.0
 355   13:15   18.3    95   22.6   298    27.9   999.00    677.8      0.0    -1406       0   999.0        0     0.0
 355   13:20   18.4    95   23.9   300    30.5   999.00    677.7      0.0    -1406       0   999.0        0     0.0
 355   13:25   18.4    95   21.2   302    28.6   999.00    677.7      0.0    -1406       0   999.0        0     0.0
 355   13:30   18.5    95   22.1   301    29.5   999.00    677.6      0.0    -1406       0   999.0        0     0.0
 355   13:35   18.6    95   20.4   303    27.5   999.00    677.6      0.0    -1406       0   999.0        0     0.0
 355   13:40   18.6    95   20.7   296    25.6   999.00    677.5      0.0    -1406       0   999.0        0     0.0
 355   13:45   18.6    95   20.5   299    28.4   999.00    677.4      0.0    -1406       0   999.0        0     0.0
 355   13:50   18.7    95   22.9   294    29.9   999.00    677.3      0.0    -1405       0   999.0        0     0.0
 355   13:55   18.9    96   24.6   291    32.0   999.00    677.1      0.0    -1405       0   999.0        0     0.0
 355   14:00   19.1    96   22.4   294    29.2   999.00    677.0      0.0    -1405       0   999.0        0     0.0
 355   14:05   19.2    96   24.9   299    32.9   999.00    677.0      0.0    -1405       0   999.0        0     0.0
 355   14:10   19.3    96   24.9   298    29.3   999.00    676.9      0.0    -1406       0   999.0        0     0.0
 355   14:15   19.4    96   24.6   300    30.8   999.00    676.8      0.0    -1406       0   999.0        0     0.0
 355   14:20   19.4    96   24.6   317    30.3   999.00    676.8      0.0    -1406       0   999.0        0     0.0
 355   14:25   19.4    96   23.4   307    28.8   999.00    676.9      0.0    -1407       0   999.0        0     0.0
 355   14:30   19.5    96   23.5   304    31.8   999.00    676.8      0.0    -1407       0   999.0        0     0.0
 355   14:35   19.5    96   22.8   305    29.5   999.00    676.8      0.0    -1407       0   999.0        0     0.0
 355   14:40   19.6    96   21.3   307    27.5   999.00    676.8      0.0    -1407       0   999.0        0     0.0
 355   14:45   19.6    96   22.4   298    27.9   999.00    676.7      0.0    -1407       0   999.0        0     0.0
 355   14:50   19.7    96   22.9   291    29.5   999.00    676.6      0.0    -1407       0   999.0        0     0.0
 355   14:55   19.7    96   21.5   295    27.9   999.00    676.7      0.0    -1408       0   999.0        0     0.0
 355   15:00   19.8    96   24.5   292    29.2   999.00    676.7      0.0    -1408       0   999.0        0     0.0
 355   15:05   19.9    96   23.6   286    32.5   999.00    676.7      0.0    -1408       0   999.0        0     0.0
 355   15:10   20.0    96   23.3   285    31.0   999.00    676.7      0.0    -1408       0   999.0        0     0.0
 355   15:15   20.1    96   23.7   291    30.8   999.00    676.7      0.0    -1409       0   999.0        0     0.0
 355   15:20   20.2    96   21.8   293    28.2   999.00    676.7      0.0    -1409       0   999.0        0     0.0
 355   15:25   20.2    96   21.6   294    27.3   999.00    676.7      0.0    -1409       0   999.0        0     0.0
 355   15:30   20.2    96   24.2   289    29.7   999.00    676.5      0.0    -1409       0   999.0        0     0.0
 355   15:35   20.3    96   24.9   283    31.4   999.00    676.4      0.0    -1409       0   999.0        0     0.0
 355   15:40   20.3    96   25.0   294    32.9   999.00    676.4      0.0    -1409       0   999.0        0     0.0
 355   15:45   20.4    96   23.1   282    27.9   999.00    676.4      0.0    -1409       0   999.0        0     0.0
 355   15:50   20.4    96   22.0   283    28.6   999.00    676.3      0.0    -1409       0   999.0        0     0.0
 355   15:55   20.5    96   24.7   284    34.5   999.00    676.2      0.0    -1409       0   999.0        0     0.0
 355   16:00   20.6    96   23.1   265    29.7   999.00    676.2      0.0    -1410       0   999.0        0     0.0
 355   16:05   20.6    96   22.5   263    29.0   999.00    676.3      0.0    -1410       0   999.0        0     0.0
 355   16:10   20.7    96   21.8   272    27.7   999.00    676.3      0.0    -1410       0   999.0        0     0.0
 355   16:15   20.6    96   23.2   264    30.5   999.00    676.2      0.0    -1410       0   999.0        0     0.0
 355   16:20   20.8    96   22.0   259    29.7   999.00    676.3      0.0    -1411       0   999.0        0     0.0
 355   16:25   20.8    96   23.2   260    31.4   999.00    676.4      0.0    -1411       0   999.0        0     0.0
 355   16:30   20.9    96   22.2   263    33.1   999.00    676.3      0.0    -1411       0   999.0        0     0.0
 355   16:35   20.9    96   21.9   290    29.3   999.00    676.4      0.0    -1412       0   999.0        0     0.0
 355   16:40   20.9    96   21.1   274    28.0   999.00    676.5      0.0    -1412       0   999.0        0     0.0
 355   16:45   20.9    96   22.6   275    29.0   999.00    676.3      0.0    -1412       0   999.0        0     0.0
 355   16:50   20.9    96   22.4   279    32.3   999.00    676.2      0.0    -1412       0   999.0        0     0.0
 355   16:55   21.1    97   20.1   273    27.7   999.00    676.4      0.0    -1413       0   999.0        0     0.0
 355   17:00   21.2    97   22.3   284    32.3   999.00    676.3      0.0    -1412       0   999.0        0     0.0
 355   17:05   21.1    96   21.2   256    28.2   999.00    676.2      0.0    -1412       0   999.0        0     0.0
 355   17:10   21.3    97   23.7   272    29.9   999.00    676.3      0.0    -1413       0   999.0        0     0.0
 355   17:15   21.4    97   20.7   253    24.3   999.00    676.3      0.0    -1413       0   999.0        0     0.0
 355   17:20   21.4    97   23.0   258    28.4   999.00    676.2      0.0    -1413       0   999.0        0     0.0
 355   17:25   21.4    97   23.7   256    32.3   999.00    676.2      0.0    -1413       0   999.0        0     0.0
 355   17:30   21.5    97   21.9   246    30.8   999.00    676.2      0.0    -1413       0   999.0        0     0.0
 355   17:35   21.5    97   22.9   279    28.0   999.00    676.2      0.0    -1413       0   999.0        0     0.0
 355   17:40   21.5    97   23.3   257    31.0   999.00    676.2      0.0    -1413       0   999.0        0     0.0
 355   17:45   21.4    97   21.5   242    26.7   999.00    676.2      0.0    -1413       0   999.0        0     0.0
 355   17:50   21.4    97   21.3   258    29.7   999.00    676.1      0.0    -1413       0   999.0        0     0.0
 355   17:55   21.3    97   22.5   239    27.5   999.00    676.1      0.0    -1414       0   999.0        0     0.0
 355   18:00   21.3    97   25.8   239    33.2   999.00    676.0      0.0    -1413       0   999.0        0     0.0
 355   18:05   21.3    97   26.2   242    33.6   999.00    676.1      0.0    -1414       0   999.0        0     0.0
 355   18:10   21.3    97   25.7   275    33.1   999.00    675.9      0.0    -1413       0   999.0        0     0.0
 355   18:15   21.4    97   26.7   267    34.0   999.00    675.9      0.0    -1413       0   999.0        0     0.0
 355   18:20   21.6    97   24.0   226    28.4   999.00    676.1      0.0    -1414       0   999.0        0     0.0
 355   18:25   21.5    97   22.1   228    27.1   999.00    676.3      0.0    -1414       0   999.0        0     0.0
 355   18:30   21.4    97   21.0   222    28.6   999.00    676.3      0.0    -1415       0   999.0        0     0.0
 355   18:35   21.4    97   22.5   244    29.7   999.00    676.3      0.0    -1415       0   999.0        0     0.0
 355   18:40   21.5    97   20.1   244    26.4   999.00    676.3      0.0    -1415       0   999.0        0     0.0
 355   18:45   21.3    97   19.3   244    23.8   999.00    676.4      0.0    -1415       0   999.0        0     0.0
 355   18:50   21.3    97   21.4    11    30.3   999.00    676.1      0.0    -1414       0   999.0        0     0.0
 355   18:55   21.3    97   22.7   197    27.9   999.00    676.2      0.0    -1415       0   999.0        0     0.0
 355   19:00   21.2    97   21.9   315    29.2   999.00    676.2      0.0    -1415       0   999.0        0     0.0
 355   19:05   21.3    97   22.8   102    29.2   999.00    676.1      0.0    -1415       0   999.0        0     0.0
 355   19:10   21.4    97   23.9   158    29.7   999.00    676.1      0.0    -1415       0   999.0        0     0.0
 355   19:15   21.6    97   24.8    22    31.0   999.00    676.0      0.0    -1414       0   999.0        0     0.0
 355   19:20   21.6    97   23.9   298    35.3   999.00    676.1      0.0    -1415       0   999.0        0     0.0
 355   19:25   21.8    97   21.9   267    27.7   999.00    676.3      0.0    -1416       0   999.0        0     0.0
 355   19:30   21.7    97   22.8   286    29.5   999.00    676.1      0.0    -1415       0   999.0        0     0.0
 355   19:35   21.8    97   23.1   158    32.0   999.00    676.0      0.0    -1415       0   999.0        0     0.0
 355   19:40   21.8    97   24.1   269    32.5   999.00    676.0      0.0    -1415       0   999.0        0     0.0
 355   19:45   21.9    97   25.0    33    29.9   999.00    675.9      0.0    -1415       0   999.0        0     0.0
 355   19:50   21.8    97   25.5    44    31.4   999.00    676.0      0.0    -1416       0   999.0        0     0.0
 355   19:55   21.8    97   25.1   286    31.8   999.00    676.1      0.0    -1416       0   999.0        0     0.0
 355   20:00   21.7    97   24.6   231    28.0   999.00    676.1      0.0    -1417       0   999.0        0     0.0
 355   20:05   21.7    97   23.5   308    28.4   999.00    676.2      0.0    -1417       0   999.0        0     0.0
 355   20:10   21.7    97   22.6    56    26.7   999.00    676.4      0.0    -1418       0   999.0        0     0.0
 355   20:15   21.6    97   21.4   289    25.2   999.00    676.4      0.0    -1418       0   999.0        0     0.0
 355   20:20   21.5    97   18.4   113    23.2   999.00    676.6      0.0    -1418       0   999.0        0     0.0
 355   20:25   21.6    97   19.9   278    24.9   999.00    676.6      0.0    -1418       0   999.0        0     0.0
 355   20:30   21.5    97   19.4   317    23.4   999.00    676.4      0.0    -1418       0   999.0        0     0.0
 355   20:35   21.3    97   18.9   163    23.4   999.00    676.5      0.0    -1418       0   999.0        0     0.0
 355   20:40   21.3    97   16.9    99    20.2   999.00    676.7      0.0    -1419       0   999.0        0     0.0
 355   20:45   21.3    97   15.1   236    18.0   999.00    676.9      0.0    -1419       0   999.0        0     0.0
 355   20:50   21.3    97   18.5   241    24.1   999.00    677.0      0.0    -1420       0   999.0        0     0.0
 355   20:55   21.3    96   12.3   249    19.5   999.00    677.6      0.0    -1421       0   999.0        0     0.0
 355   21:00   20.9    96   13.4   244    19.3   999.00    677.3      0.0    -1420       0   999.0        0     0.0
 355   21:05   20.5    96    5.4   232    12.6   999.00    677.3      0.0    -1420       0   999.0        0     0.0
 355   21:10   20.1    96    1.8   243     1.8   999.00    677.5      0.0    -1421       0   999.0        0     0.0
 355   21:15   19.7    96    1.8   243     1.8   999.00    677.7      0.0    -1421       0   999.0        0     0.0
 355   21:20   19.3    96    1.8   243     1.8   999.00    677.8      0.0    -1421       0   999.0        0     0.0
 355   21:25   19.2    95    1.8   243     1.8   999.00    677.8      0.0    -1420       0   999.0        0     0.0
 355   21:30   19.1    95    1.8   243     1.8   999.00    677.8      0.0    -1420       0   999.0        0     0.0
 355   21:35   19.0    95    1.8   243     1.8   999.00    677.8      0.0    -1420       0   999.0        0     0.0
 355   21:40   18.9    95    1.8   243     1.8   999.00    677.9      0.0    -1420       0   999.0        0     0.0
 355   21:45   18.8    95    1.8   243     1.8   999.00    678.0      0.0    -1419       0   999.0        0     0.0
 355   21:50   18.7    95    1.8   243     1.8   999.00    678.2      0.0    -1420       0   999.0        0     0.0
 355   21:55   18.6    95    1.8   243     1.8   999.00    678.2      0.0    -1419       0   999.0        0     0.0
 355   22:00   18.6    95    1.8   243     1.8   999.00    678.2      0.0    -1419       0   999.0        0     0.0
 355   22:05   18.4    95    1.8   243     1.8   999.00    678.3      0.0    -1419       0   999.0        0     0.0
 355   22:10   18.3    95    1.8   243     1.8   999.00    678.3      0.0    -1419       0   999.0        0     0.0
 355   22:15   18.3    95    1.8   243     1.8   999.00    678.2      0.0    -1418       0   999.0        0     0.0
 355   22:20   18.2    95    1.8   243     1.8   999.00    678.1      0.0    -1418       0   999.0        0     0.0
 355   22:25   18.1    95    1.8   243     1.8   999.00    678.1      0.0    -1418       0   999.0        0     0.0
 355   22:30   18.0    95    1.8   243     1.8   999.00    678.1      0.0    -1418       0   999.0        0     0.0
 355   22:35   17.9    95    1.8   243     1.8   999.00    678.3      0.0    -1418       0   999.0        0     0.0
 355   22:40   17.8    95    1.8   243     1.8   999.00    678.4      0.0    -1418       0   999.0        0     0.0
 355   22:45   17.6    95    1.8   243     1.8   999.00    678.3      0.0    -1417       0   999.0        0     0.0
 355   22:50   17.4    95    1.8   243     1.8   999.00    678.3      0.0    -1417       0   999.0        0     0.0
 355   22:55   17.1    94    1.8   243     1.8   999.00    678.5      0.0    -1418       0   999.0        0     0.0
 355   23:00   17.0    94    1.8   243     1.8   999.00    678.8      0.0    -1418       0   999.0        0     0.0
 355   23:05   16.8    94    1.8   243     1.8   999.00    678.8      0.0    -1418       0   999.0        0     0.0
 355   23:10   16.7    94    1.8   243     1.8   999.00    678.9      0.0    -1418       0   999.0        0     0.0
 355   23:15   16.5    94    1.8   243     1.8   999.00    678.9      0.0    -1418       0   999.0        0     0.0
 355   23:20   16.4    94    1.8   243     1.8   999.00    678.9      0.0    -1418       0   999.0        0     0.0
 355   23:25   16.2    94    1.8   243     1.8   999.00    678.9      0.0    -1418       0   999.0        0     0.0
 355   23:30   16.1    94    1.8   243     1.8   999.00    678.8      0.0    -1417       0   999.0        0     0.0
 355   23:35   16.0    94    1.8   243     1.8   999.00    679.0      0.0    -1418       0   999.0        0     0.0
 355   23:40   15.9    94    1.8   243     1.8   999.00    679.1      0.0    -1418       0   999.0        0     0.0
 355   23:45   15.8    94    1.8   243     1.8   999.00    679.1      0.0    -1418       0   999.0        0     0.0
 355   23:50   15.7    94    1.8   243     1.8   999.00    679.0      0.0    -1418       0   999.0        0     0.0
 355   23:55   15.7    94    1.8   243     1.8   999.00    678.9      0.0    -1417       0   999.0        0     0.0
 356    0:00   15.7    94    1.8   243     1.8   999.00    678.9      0.0    -1417       0   999.0        0     0.0
 356    0:05   15.7    94    1.8   243     1.8   999.00    678.9      0.0    -1417       0   999.0        0     0.0
 356    0:10   15.6    94    1.8   243     1.8   999.00    678.9      0.0    -1417       0   999.0        0     0.0
 356    0:15   15.6    94    1.8   243     1.8   999.00    678.9      0.0    -1417       0   999.0        0     0.0
 356    0:20   15.5    94    1.8   243     1.8   999.00    679.0      0.0    -1417       0   999.0        0     0.0
 356    0:25   15.6    94    1.8   243     1.8   999.00    679.0      0.0    -1417       0   999.0        0     0.0
 356    0:30   15.5    94    1.8   243     1.8   999.00    679.0      0.0    -1417       0   999.0        0     0.0
 356    0:35   15.5    94    1.8   243     1.8   999.00    678.9      0.0    -1417       0   999.0        0     0.0
 356    0:40   15.6    94    1.8   243     1.8   999.00    678.9      0.0    -1417       0   999.0        0     0.0
 356    0:45   15.6    94    1.8   243     1.8   999.00    679.0      0.0    -1417       0   999.0        0     0.0
 356    0:50   15.6    94    1.8   243     1.8   999.00    679.1      0.0    -1418       0   999.0        0     0.0
 356    0:55   15.7    94    1.8   243     1.8   999.00    679.0      0.0    -1418       0   999.0        0     0.0
 356    1:00   15.7    94    1.8   243     1.8   999.00    679.0      0.0    -1418       0   999.0        0     0.0
 356    1:05   15.7    94    1.8   243     1.8   999.00    679.0      0.0    -1418       0   999.0        0     0.0
 356    1:10   15.8    94    1.8   243     1.8   999.00    678.9      0.0    -1418       0   999.0        0     0.0
 356    1:15   15.8    94    1.8   243     1.8   999.00    679.0      0.0    -1418       0   999.0        0     0.0
 356    1:20   15.9    94    1.8   243     1.8   999.00    678.9      0.0    -1418       0   999.0        0     0.0
 356    1:25   16.0    94    1.8   243     1.8   999.00    678.8      0.0    -1418       0   999.0        0     0.0
 356    1:30   16.1    94    1.8   243     1.8   999.00    678.7      0.0    -1418       0   999.0        0     0.0
 356    1:35   16.0    94    1.8   243     1.8   999.00    678.6      0.0    -1418       0   999.0        0     0.0
 356    1:40   16.1    94    1.8   243     1.8   999.00    678.6      0.0    -1418       0   999.0        0     0.0
 356    1:45   16.0    94    1.8   243     1.8   999.00    678.7      0.0    -1418       0   999.0        0     0.0
 356    1:50   16.0    94    1.8   243     1.8   999.00    678.6      0.0    -1418       0   999.0        0     0.0
 356    1:55   15.9    94    1.8   243     1.8   999.00    678.7      0.0    -1418       0   999.0        0     0.0
 356    2:00   15.9    94    1.8   243     1.8   999.00    678.7      0.0    -1418       0   999.0        0     0.0
 356    2:05   15.8    94    1.8   243     1.8   999.00    678.9      0.0    -1419       0   999.0        0     0.0
 356    2:10   15.8    94    1.8   243     1.8   999.00    678.9      0.0    -1419       0   999.0        0     0.0
 356    2:15   15.8    94    1.8   243     1.8   999.00    678.8      0.0    -1419       0   999.0        0     0.0
 356    2:20   15.8    94    1.8   243     1.8   999.00    678.8      0.0    -1419       0   999.0        0     0.0
 356    2:25   15.8    94    1.8   243     1.8   999.00    678.8      0.0    -1419       0   999.0        0     0.0
 356    2:30   15.8    94    1.8   243     1.8   999.00    678.7      0.0    -1418       0   999.0        0     0.0
 356    2:35   15.8    94    1.8   243     1.8   999.00    678.8      0.0    -1419       0   999.0        0     0.0
 356    2:40   15.8    94    1.8   243     1.8   999.00    679.0      0.0    -1419       0   999.0        0     0.0
 356    2:45   15.8    94    1.8   243     1.8   999.00    679.0      0.0    -1419       0   999.0        0     0.0
 356    2:50   15.7    94    1.8   243     1.8   999.00    679.0      0.0    -1419       0   999.0        0     0.0
 356    2:55   15.7    94    1.8   243     1.8   999.00    679.0      0.0    -1419       0   999.0        0     0.0
 356    3:00   15.7    94    1.8   243     1.8   999.00    679.0      0.0    -1419       0   999.0        0     0.0
 356    3:05   15.6    94    1.8   243     1.8   999.00    679.0      0.0    -1419       0   999.0        0     0.0
 356    3:10   15.6    94    1.8   243     1.8   999.00    679.0      0.0    -1419       0   999.0        0     0.0
 356    3:15   15.5    94    1.8   243     1.8   999.00    679.0      0.0    -1420       0   999.0        0     0.0
 356    3:20   15.4    94    1.8   243     1.8   999.00    678.9      0.0    -1420       0   999.0        0     0.0
 356    3:25   15.3    94    1.8   243     1.8   999.00    679.1      0.0    -1420       0   999.0        0     0.0
 356    3:30   15.2    94    1.8   243     1.8   999.00    679.0      0.0    -1420       0   999.0        0     0.0
 356    3:35   15.1    94    1.8   243     1.8   999.00    679.1      0.0    -1420       0   999.0        0     0.0
 356    3:40   14.9    94    1.8   243     1.8   999.00    679.0      0.0    -1420       0   999.0        0     0.0
 356    3:45   14.8    93    1.8   243     1.8   999.00    679.2      0.0    -1420       0   999.0        0     0.0
 356    3:50   14.7    93    1.8   243     1.8   999.00    679.2      0.0    -1420       0   999.0        0     0.0
 356    3:55   14.6    93    1.8   243     1.8   999.00    679.2      0.0    -1421       0   999.0        0     0.0
 356    4:00   14.6    93    1.8   243     1.8   999.00    679.2      0.0    -1421       0   999.0        0     0.0
 356    4:05   14.5    93    1.8   243     1.8   999.00    679.2      0.0    -1421       0   999.0        0     0.0
 356    4:10   14.5    93    1.8   243     1.8   999.00    679.2      0.0    -1421       0   999.0        0     0.0
 356    4:15   14.4    93    1.8   243     1.8   999.00    679.2      0.0    -1420       0   999.0        0     0.0
 356    4:20   14.4    93    1.8   243     1.8   999.00    679.2      0.0    -1421       0   999.0        0     0.0
 356    4:25   14.3    93    1.8   243     1.8   999.00    679.3      0.0    -1421       0   999.0        0     0.0
 356    4:30   14.3    93    1.8   243     1.8   999.00    679.3      0.0    -1421       0   999.0        0     0.0
 356    4:35   14.3    93    1.8   243     1.8   999.00    679.3      0.0    -1421       0   999.0        0     0.0
 356    4:40   14.3    93    1.8   243     1.8   999.00    679.4      0.0    -1421       0   999.0        0     0.0
 356    4:45   14.3    93    1.8   243     1.8   999.00    679.4      0.0    -1421       0   999.0        0     0.0
 356    4:50   14.3    93    1.8   243     1.8   999.00    679.3      0.0    -1420       0   999.0        0     0.0
 356    4:55   14.3    93    1.8   243     1.8   999.00    679.4      0.0    -1420       0   999.0        0     0.0
 356    5:00   14.3    93    1.8   243     1.8   999.00    679.2      0.0    -1420       0   999.0        0     0.0
 356    5:05   14.3    93    1.8   243     1.8   999.00    679.2      0.0    -1420       0   999.0        0     0.0
 356    5:10   14.3    93    1.8   243     1.8   999.00    679.1      0.0    -1420       0   999.0        0     0.0
 356    5:15   14.3    93    1.8   243     1.8   999.00    679.0      0.0    -1419       0   999.0        0     0.0
 356    5:20   14.3    93    1.8   243     1.8   999.00    679.1      0.0    -1420       0   999.0        0     0.0
 356    5:25   14.3    93    1.8   243     1.8   999.00    679.1      0.0    -1420       0   999.0        0     0.0
 356    5:30   14.3    93    1.8   243     1.8   999.00    679.1      0.0    -1420       0   999.0        0     0.0

Return to DRI Storm Peak Lab. graphs page.


Western Regional Climate Center,wrcc@dri.edu